sensor_id;sensor_type;location;lat;lon;timestamp;pressure;altitude;pressure_sealevel;temperature;humidity
64023;BME280;50264;52.088;5.296;2022-12-07T00:00:27;101810.0;;;3.39;94.2
64023;BME280;50264;52.088;5.296;2022-12-07T00:02:03;101809.0;;;3.49;94.47
64023;BME280;50264;52.088;5.296;2022-12-07T00:03:40;101809.0;;;3.47;94.03
64023;BME280;50264;52.088;5.296;2022-12-07T00:06:53;101807.0;;;3.57;93.32
64023;BME280;50264;52.088;5.296;2022-12-07T00:08:30;101809.0;;;3.38;93.25
64023;BME280;50264;52.088;5.296;2022-12-07T00:10:07;101807.0;;;3.37;93.62
64023;BME280;50264;52.088;5.296;2022-12-07T00:13:25;101813.0;;;3.41;93.37
64023;BME280;50264;52.088;5.296;2022-12-07T00:15:02;101811.0;;;3.35;93.38
64023;BME280;50264;52.088;5.296;2022-12-07T00:16:39;101805.0;;;3.37;93.5
64023;BME280;50264;52.088;5.296;2022-12-07T00:18:15;101806.0;;;3.23;93.24
64023;BME280;50264;52.088;5.296;2022-12-07T00:21:30;101807.0;;;3.2;93.5
64023;BME280;50264;52.088;5.296;2022-12-07T00:23:07;101802.0;;;3.14;93.2
64023;BME280;50264;52.088;5.296;2022-12-07T00:24:43;101799.0;;;3.15;93.28
64023;BME280;50264;52.088;5.296;2022-12-07T00:27:58;101805.0;;;3.06;93.48
64023;BME280;50264;52.088;5.296;2022-12-07T00:29:34;101796.0;;;3.08;93.95
64023;BME280;50264;52.088;5.296;2022-12-07T00:31:11;101799.0;;;3.04;93.62
64023;BME280;50264;52.088;5.296;2022-12-07T00:32:48;101800.0;;;3.05;93.47
64023;BME280;50264;52.088;5.296;2022-12-07T00:36:01;101791.0;;;3.05;93.3
64023;BME280;50264;52.088;5.296;2022-12-07T00:37:39;101794.0;;;3.04;92.64
64023;BME280;50264;52.088;5.296;2022-12-07T00:39:15;101794.0;;;2.94;93.06
64023;BME280;50264;52.088;5.296;2022-12-07T00:42:32;101795.0;;;2.93;93.07
64023;BME280;50264;52.088;5.296;2022-12-07T00:44:09;101787.0;;;2.85;92.78
64023;BME280;50264;52.088;5.296;2022-12-07T00:45:44;101787.0;;;2.74;92.77
64023;BME280;50264;52.088;5.296;2022-12-07T00:48:57;101782.0;;;2.65;92.77
64023;BME280;50264;52.088;5.296;2022-12-07T00:50:33;101777.0;;;2.6;93.15
64023;BME280;50264;52.088;5.296;2022-12-07T00:52:09;101782.0;;;2.64;92.78
64023;BME280;50264;52.088;5.296;2022-12-07T00:53:46;101776.0;;;2.52;92.85
64023;BME280;50264;52.088;5.296;2022-12-07T00:56:59;101780.0;;;2.5;93.07
64023;BME280;50264;52.088;5.296;2022-12-07T00:58:35;101780.0;;;2.54;93.11
64023;BME280;50264;52.088;5.296;2022-12-07T01:00:11;101783.0;;;2.5;92.91
64023;BME280;50264;52.088;5.296;2022-12-07T01:03:24;101780.0;;;2.46;93.2
64023;BME280;50264;52.088;5.296;2022-12-07T01:05:00;101775.0;;;2.46;93.27
64023;BME280;50264;52.088;5.296;2022-12-07T01:06:38;101775.0;;;2.4;93.29
64023;BME280;50264;52.088;5.296;2022-12-07T01:09:50;101775.0;;;2.39;93.06
64023;BME280;50264;52.088;5.296;2022-12-07T01:11:28;101773.0;;;2.38;92.76
64023;BME280;50264;52.088;5.296;2022-12-07T01:13:05;101776.0;;;2.33;93.77
64023;BME280;50264;52.088;5.296;2022-12-07T01:14:42;101780.0;;;2.27;93.48
64023;BME280;50264;52.088;5.296;2022-12-07T01:17:56;101789.0;;;2.25;93.11
64023;BME280;50264;52.088;5.296;2022-12-07T01:19:32;101788.0;;;2.23;93.08
64023;BME280;50264;52.088;5.296;2022-12-07T01:21:11;101792.0;;;2.19;92.87
64023;BME280;50264;52.088;5.296;2022-12-07T01:24:23;101794.0;;;2.14;92.71
64023;BME280;50264;52.088;5.296;2022-12-07T01:26:02;101793.0;;;2.11;92.93
64023;BME280;50264;52.088;5.296;2022-12-07T01:27:39;101792.0;;;2.04;92.6
64023;BME280;50264;52.088;5.296;2022-12-07T01:29:15;101796.0;;;1.96;93.35
64023;BME280;50264;52.088;5.296;2022-12-07T01:32:33;101791.0;;;1.94;93.09
64023;BME280;50264;52.088;5.296;2022-12-07T01:34:10;101793.0;;;1.9;92.73
64023;BME280;50264;52.088;5.296;2022-12-07T01:35:46;101791.0;;;1.9;93.06
64023;BME280;50264;52.088;5.296;2022-12-07T01:38:59;101786.0;;;1.89;93.39
64023;BME280;50264;52.088;5.296;2022-12-07T01:40:36;101791.0;;;1.86;93.38
64023;BME280;50264;52.088;5.296;2022-12-07T01:42:12;101782.0;;;1.85;93.23
64023;BME280;50264;52.088;5.296;2022-12-07T01:45:59;101787.0;;;1.88;92.34
64023;BME280;50264;52.088;5.296;2022-12-07T01:49:21;101786.0;;;1.86;92.67
64023;BME280;50264;52.088;5.296;2022-12-07T01:51:02;101788.0;;;1.83;92.3
64023;BME280;50264;52.088;5.296;2022-12-07T01:52:43;101789.0;;;1.84;92.61
64023;BME280;50264;52.088;5.296;2022-12-07T01:54:25;101785.0;;;1.78;92.4
64023;BME280;50264;52.088;5.296;2022-12-07T01:57:41;101788.0;;;1.8;92.34
64023;BME280;50264;52.088;5.296;2022-12-07T01:59:21;101790.0;;;1.7;92.3
64023;BME280;50264;52.088;5.296;2022-12-07T02:00:59;101787.0;;;1.75;92.59
64023;BME280;50264;52.088;5.296;2022-12-07T02:04:18;101782.0;;;1.63;92.45
64023;BME280;50264;52.088;5.296;2022-12-07T02:05:55;101787.0;;;1.69;92.69
64023;BME280;50264;52.088;5.296;2022-12-07T02:07:35;101789.0;;;1.6;92.86
64023;BME280;50264;52.088;5.296;2022-12-07T02:09:14;101790.0;;;1.59;93.14
64023;BME280;50264;52.088;5.296;2022-12-07T02:12:27;101787.0;;;1.6;93.13
64023;BME280;50264;52.088;5.296;2022-12-07T02:14:04;101789.0;;;1.58;92.62
64023;BME280;50264;52.088;5.296;2022-12-07T02:15:49;101787.0;;;1.52;92.67
64023;BME280;50264;52.088;5.296;2022-12-07T02:17:48;101788.0;;;1.52;92.63
64023;BME280;50264;52.088;5.296;2022-12-07T02:20:00;101785.0;;;1.48;92.71
64023;BME280;50264;52.088;5.296;2022-12-07T02:22:22;101783.0;;;1.56;92.7
64023;BME280;50264;52.088;5.296;2022-12-07T02:24:48;101782.0;;;1.53;93.0
64023;BME280;50264;52.088;5.296;2022-12-07T02:27:03;101773.0;;;1.61;93.56
64023;BME280;50264;52.088;5.296;2022-12-07T02:29:34;101776.0;;;1.56;93.06
64023;BME280;50264;52.088;5.296;2022-12-07T02:31:18;101778.0;;;1.59;93.97
64023;BME280;50264;52.088;5.296;2022-12-07T02:33:00;101783.0;;;1.62;94.14
64023;BME280;50264;52.088;5.296;2022-12-07T02:34:46;101782.0;;;1.63;94.02
64023;BME280;50264;52.088;5.296;2022-12-07T02:36:27;101777.0;;;1.67;94.45
64023;BME280;50264;52.088;5.296;2022-12-07T02:39:55;101770.0;;;1.68;94.26
64023;BME280;50264;52.088;5.296;2022-12-07T02:41:37;101771.0;;;1.75;94.16
64023;BME280;50264;52.088;5.296;2022-12-07T02:43:21;101773.0;;;1.74;94.02
64023;BME280;50264;52.088;5.296;2022-12-07T02:45:00;101776.0;;;1.91;93.96
64023;BME280;50264;52.088;5.296;2022-12-07T02:46:42;101773.0;;;1.84;93.55
64023;BME280;50264;52.088;5.296;2022-12-07T02:49:57;101772.0;;;1.97;93.6
64023;BME280;50264;52.088;5.296;2022-12-07T02:51:33;101769.0;;;1.98;93.59
64023;BME280;50264;52.088;5.296;2022-12-07T02:53:46;101769.0;;;1.95;93.28
64023;BME280;50264;52.088;5.296;2022-12-07T02:55:25;101770.0;;;2.05;93.4
64023;BME280;50264;52.088;5.296;2022-12-07T02:57:16;101774.0;;;1.99;93.16
64023;BME280;50264;52.088;5.296;2022-12-07T03:00:59;101771.0;;;1.97;93.0
64023;BME280;50264;52.088;5.296;2022-12-07T03:02:51;101771.0;;;1.87;93.34
64023;BME280;50264;52.088;5.296;2022-12-07T03:04:37;101766.0;;;1.81;93.15
64023;BME280;50264;52.088;5.296;2022-12-07T03:06:22;101768.0;;;1.81;93.18
64023;BME280;50264;52.088;5.296;2022-12-07T03:08:08;101771.0;;;1.83;93.78
64023;BME280;50264;52.088;5.296;2022-12-07T03:09:53;101776.0;;;1.86;94.29
64023;BME280;50264;52.088;5.296;2022-12-07T03:13:24;101783.0;;;1.9;94.35
64023;BME280;50264;52.088;5.296;2022-12-07T03:15:08;101787.0;;;1.91;94.98
64023;BME280;50264;52.088;5.296;2022-12-07T03:16:52;101785.0;;;2.07;95.03
64023;BME280;50264;52.088;5.296;2022-12-07T03:18:34;101777.0;;;2.11;94.69
64023;BME280;50264;52.088;5.296;2022-12-07T03:20:17;101772.0;;;2.32;94.7
64023;BME280;50264;52.088;5.296;2022-12-07T03:23:40;101759.0;;;2.34;93.7
64023;BME280;50264;52.088;5.296;2022-12-07T03:25:20;101766.0;;;2.25;93.38
64023;BME280;50264;52.088;5.296;2022-12-07T03:27:01;101766.0;;;2.17;93.2
64023;BME280;50264;52.088;5.296;2022-12-07T03:28:52;101764.0;;;2.25;93.58
64023;BME280;50264;52.088;5.296;2022-12-07T03:32:16;101757.0;;;2.31;93.7
64023;BME280;50264;52.088;5.296;2022-12-07T03:34:06;101764.0;;;2.23;93.76
64023;BME280;50264;52.088;5.296;2022-12-07T03:35:53;101758.0;;;2.17;93.38
64023;BME280;50264;52.088;5.296;2022-12-07T03:37:39;101756.0;;;2.13;93.49
64023;BME280;50264;52.088;5.296;2022-12-07T03:39:23;101757.0;;;2.21;93.51
64023;BME280;50264;52.088;5.296;2022-12-07T03:41:05;101756.0;;;2.14;93.37
64023;BME280;50264;52.088;5.296;2022-12-07T03:44:23;101759.0;;;2.07;93.78
64023;BME280;50264;52.088;5.296;2022-12-07T03:46:06;101755.0;;;2.06;94.06
64023;BME280;50264;52.088;5.296;2022-12-07T03:47:54;101756.0;;;1.99;93.73
64023;BME280;50264;52.088;5.296;2022-12-07T03:49:41;101748.0;;;1.99;93.9
64023;BME280;50264;52.088;5.296;2022-12-07T03:53:09;101749.0;;;2.0;93.61
64023;BME280;50264;52.088;5.296;2022-12-07T03:54:52;101750.0;;;2.19;93.32
64023;BME280;50264;52.088;5.296;2022-12-07T03:56:32;101760.0;;;2.09;93.07
64023;BME280;50264;52.088;5.296;2022-12-07T03:58:15;101760.0;;;2.07;94.06
64023;BME280;50264;52.088;5.296;2022-12-07T03:59:54;101761.0;;;2.09;94.13
64023;BME280;50264;52.088;5.296;2022-12-07T04:03:08;101752.0;;;2.23;93.91
64023;BME280;50264;52.088;5.296;2022-12-07T04:04:45;101755.0;;;2.27;93.36
64023;BME280;50264;52.088;5.296;2022-12-07T04:06:21;101755.0;;;2.19;93.68
64023;BME280;50264;52.088;5.296;2022-12-07T04:09:33;101751.0;;;2.17;93.74
64023;BME280;50264;52.088;5.296;2022-12-07T04:11:10;101753.0;;;2.15;93.54
64023;BME280;50264;52.088;5.296;2022-12-07T04:12:47;101753.0;;;2.07;93.45
64023;BME280;50264;52.088;5.296;2022-12-07T04:15:59;101749.0;;;2.09;93.6
64023;BME280;50264;52.088;5.296;2022-12-07T04:17:35;101750.0;;;2.12;93.83
64023;BME280;50264;52.088;5.296;2022-12-07T04:19:13;101749.0;;;2.09;94.62
64023;BME280;50264;52.088;5.296;2022-12-07T04:20:49;101749.0;;;2.16;93.72
64023;BME280;50264;52.088;5.296;2022-12-07T04:24:02;101746.0;;;2.09;93.61
64023;BME280;50264;52.088;5.296;2022-12-07T04:25:39;101740.0;;;2.05;93.47
64023;BME280;50264;52.088;5.296;2022-12-07T04:27:16;101739.0;;;2.02;93.95
64023;BME280;50264;52.088;5.296;2022-12-07T04:30:28;101746.0;;;1.95;93.52
64023;BME280;50264;52.088;5.296;2022-12-07T04:32:05;101742.0;;;1.93;93.54
64023;BME280;50264;52.088;5.296;2022-12-07T04:33:41;101745.0;;;1.9;93.59
64023;BME280;50264;52.088;5.296;2022-12-07T04:36:53;101746.0;;;1.91;93.74
64023;BME280;50264;52.088;5.296;2022-12-07T04:38:29;101746.0;;;1.96;93.75
64023;BME280;50264;52.088;5.296;2022-12-07T04:40:07;101745.0;;;1.98;93.38
64023;BME280;50264;52.088;5.296;2022-12-07T04:41:45;101743.0;;;1.9;93.81
64023;BME280;50264;52.088;5.296;2022-12-07T04:44:57;101751.0;;;1.95;94.01
64023;BME280;50264;52.088;5.296;2022-12-07T04:46:33;101769.0;;;1.91;94.42
64023;BME280;50264;52.088;5.296;2022-12-07T04:48:09;101776.0;;;1.97;94.44
64023;BME280;50264;52.088;5.296;2022-12-07T04:51:23;101766.0;;;1.94;94.83
64023;BME280;50264;52.088;5.296;2022-12-07T04:53:01;101758.0;;;2.02;95.31
64023;BME280;50264;52.088;5.296;2022-12-07T04:54:37;101743.0;;;2.09;95.42
64023;BME280;50264;52.088;5.296;2022-12-07T04:57:50;101734.0;;;2.07;95.12
64023;BME280;50264;52.088;5.296;2022-12-07T04:59:26;101726.0;;;2.21;94.7
64023;BME280;50264;52.088;5.296;2022-12-07T05:01:03;101721.0;;;2.16;94.99
64023;BME280;50264;52.088;5.296;2022-12-07T05:02:39;101727.0;;;2.19;95.09
64023;BME280;50264;52.088;5.296;2022-12-07T05:05:52;101723.0;;;2.31;95.12
64023;BME280;50264;52.088;5.296;2022-12-07T05:07:28;101723.0;;;2.29;95.02
64023;BME280;50264;52.088;5.296;2022-12-07T05:09:05;101726.0;;;2.33;95.47
64023;BME280;50264;52.088;5.296;2022-12-07T05:12:18;101724.0;;;2.35;95.24
64023;BME280;50264;52.088;5.296;2022-12-07T05:13:54;101720.0;;;2.38;94.94
64023;BME280;50264;52.088;5.296;2022-12-07T05:15:31;101725.0;;;2.44;94.52
64023;BME280;50264;52.088;5.296;2022-12-07T05:18:43;101726.0;;;2.38;93.94
64023;BME280;50264;52.088;5.296;2022-12-07T05:20:20;101725.0;;;2.4;94.41
64023;BME280;50264;52.088;5.296;2022-12-07T05:21:56;101726.0;;;2.37;94.61
64023;BME280;50264;52.088;5.296;2022-12-07T05:23:32;101715.0;;;2.36;94.03
64023;BME280;50264;52.088;5.296;2022-12-07T05:26:45;101716.0;;;2.33;93.72
64023;BME280;50264;52.088;5.296;2022-12-07T05:28:22;101724.0;;;2.32;94.01
64023;BME280;50264;52.088;5.296;2022-12-07T05:29:58;101719.0;;;2.35;94.01
64023;BME280;50264;52.088;5.296;2022-12-07T05:33:10;101720.0;;;2.31;94.35
64023;BME280;50264;52.088;5.296;2022-12-07T05:34:47;101720.0;;;2.25;94.49
64023;BME280;50264;52.088;5.296;2022-12-07T05:36:23;101719.0;;;2.35;94.2
64023;BME280;50264;52.088;5.296;2022-12-07T05:39:34;101724.0;;;2.27;93.85
64023;BME280;50264;52.088;5.296;2022-12-07T05:42:11;101726.0;;;2.25;93.76
64023;BME280;50264;52.088;5.296;2022-12-07T05:43:48;101719.0;;;2.29;93.58
64023;BME280;50264;52.088;5.296;2022-12-07T05:45:24;101716.0;;;2.23;93.4
64023;BME280;50264;52.088;5.296;2022-12-07T05:47:00;101719.0;;;2.17;93.81
64023;BME280;50264;52.088;5.296;2022-12-07T05:48:36;101722.0;;;2.23;93.7
64023;BME280;50264;52.088;5.296;2022-12-07T05:51:48;101723.0;;;2.19;93.8
64023;BME280;50264;52.088;5.296;2022-12-07T05:53:25;101724.0;;;2.16;93.94
64023;BME280;50264;52.088;5.296;2022-12-07T05:55:01;101725.0;;;2.19;93.69
64023;BME280;50264;52.088;5.296;2022-12-07T05:59:30;101725.0;;;2.06;93.54
64023;BME280;50264;52.088;5.296;2022-12-07T06:01:06;101730.0;;;2.0;93.79
64023;BME280;50264;52.088;5.296;2022-12-07T06:02:42;101727.0;;;1.98;93.95
64023;BME280;50264;52.088;5.296;2022-12-07T06:04:20;101726.0;;;2.0;94.08
64023;BME280;50264;52.088;5.296;2022-12-07T06:05:56;101730.0;;;2.0;94.59
64023;BME280;50264;52.088;5.296;2022-12-07T06:07:32;101732.0;;;1.95;94.17
64023;BME280;50264;52.088;5.296;2022-12-07T06:10:47;101728.0;;;1.98;94.31
64023;BME280;50264;52.088;5.296;2022-12-07T06:12:39;101723.0;;;2.1;94.14
64023;BME280;50264;52.088;5.296;2022-12-07T06:14:16;101723.0;;;2.09;93.83
64023;BME280;50264;52.088;5.296;2022-12-07T06:15:52;101728.0;;;2.05;93.9
64023;BME280;50264;52.088;5.296;2022-12-07T06:19:04;101724.0;;;2.11;93.36
64023;BME280;50264;52.088;5.296;2022-12-07T06:20:40;101728.0;;;2.11;93.63
64023;BME280;50264;52.088;5.296;2022-12-07T06:22:17;101724.0;;;2.1;93.67
64023;BME280;50264;52.088;5.296;2022-12-07T06:25:30;101724.0;;;2.15;93.63
64023;BME280;50264;52.088;5.296;2022-12-07T06:27:06;101725.0;;;2.11;93.48
64023;BME280;50264;52.088;5.296;2022-12-07T06:28:43;101727.0;;;2.15;93.12
64023;BME280;50264;52.088;5.296;2022-12-07T06:31:56;101723.0;;;2.12;93.43
64023;BME280;50264;52.088;5.296;2022-12-07T06:33:32;101722.0;;;2.21;93.58
64023;BME280;50264;52.088;5.296;2022-12-07T06:35:08;101727.0;;;2.14;93.34
64023;BME280;50264;52.088;5.296;2022-12-07T06:36:47;101730.0;;;2.16;93.81
64023;BME280;50264;52.088;5.296;2022-12-07T06:39:59;101728.0;;;2.12;94.1
64023;BME280;50264;52.088;5.296;2022-12-07T06:41:37;101727.0;;;2.21;93.74
64023;BME280;50264;52.088;5.296;2022-12-07T06:43:13;101728.0;;;2.32;93.4
64023;BME280;50264;52.088;5.296;2022-12-07T06:46:26;101734.0;;;2.27;92.39
64023;BME280;50264;52.088;5.296;2022-12-07T06:48:02;101730.0;;;2.14;92.94
64023;BME280;50264;52.088;5.296;2022-12-07T06:49:39;101738.0;;;2.07;92.39
64023;BME280;50264;52.088;5.296;2022-12-07T06:52:52;101731.0;;;2.12;92.85
64023;BME280;50264;52.088;5.296;2022-12-07T06:54:30;101735.0;;;2.07;93.18
64023;BME280;50264;52.088;5.296;2022-12-07T06:56:07;101731.0;;;2.21;93.06
64023;BME280;50264;52.088;5.296;2022-12-07T06:57:44;101728.0;;;2.19;92.97
64023;BME280;50264;52.088;5.296;2022-12-07T07:00:57;101725.0;;;2.23;92.62
64023;BME280;50264;52.088;5.296;2022-12-07T07:02:33;101725.0;;;2.21;92.08
64023;BME280;50264;52.088;5.296;2022-12-07T07:04:09;101726.0;;;2.23;92.97
64023;BME280;50264;52.088;5.296;2022-12-07T07:07:21;101730.0;;;2.23;93.44
64023;BME280;50264;52.088;5.296;2022-12-07T07:08:58;101726.0;;;2.14;92.82
64023;BME280;50264;52.088;5.296;2022-12-07T07:10:34;101725.0;;;2.21;93.19
64023;BME280;50264;52.088;5.296;2022-12-07T07:13:47;101733.0;;;2.14;92.75
64023;BME280;50264;52.088;5.296;2022-12-07T07:15:23;101735.0;;;2.1;93.06
64023;BME280;50264;52.088;5.296;2022-12-07T07:16:59;101731.0;;;2.19;93.38
64023;BME280;50264;52.088;5.296;2022-12-07T07:18:36;101730.0;;;2.17;92.75
64023;BME280;50264;52.088;5.296;2022-12-07T07:21:49;101730.0;;;2.09;93.0
64023;BME280;50264;52.088;5.296;2022-12-07T07:23:25;101731.0;;;2.16;92.94
64023;BME280;50264;52.088;5.296;2022-12-07T07:25:01;101727.0;;;2.1;92.59
64023;BME280;50264;52.088;5.296;2022-12-07T07:28:16;101731.0;;;2.21;92.68
64023;BME280;50264;52.088;5.296;2022-12-07T07:29:52;101732.0;;;2.12;92.44
64023;BME280;50264;52.088;5.296;2022-12-07T07:31:28;101728.0;;;2.31;92.3
64023;BME280;50264;52.088;5.296;2022-12-07T07:34:42;101722.0;;;2.27;91.84
64023;BME280;50264;52.088;5.296;2022-12-07T07:36:18;101732.0;;;2.31;91.54
64023;BME280;50264;52.088;5.296;2022-12-07T07:37:54;101725.0;;;2.23;91.88
64023;BME280;50264;52.088;5.296;2022-12-07T07:39:31;101731.0;;;2.13;91.77
64023;BME280;50264;52.088;5.296;2022-12-07T07:42:43;101736.0;;;2.12;91.61
64023;BME280;50264;52.088;5.296;2022-12-07T07:44:19;101733.0;;;2.21;91.61
64023;BME280;50264;52.088;5.296;2022-12-07T07:45:55;101730.0;;;2.16;91.36
64023;BME280;50264;52.088;5.296;2022-12-07T07:49:08;101734.0;;;2.15;91.43
64023;BME280;50264;52.088;5.296;2022-12-07T07:50:44;101740.0;;;2.14;91.35
64023;BME280;50264;52.088;5.296;2022-12-07T07:52:20;101740.0;;;2.13;91.68
64023;BME280;50264;52.088;5.296;2022-12-07T07:55:33;101738.0;;;2.08;91.41
64023;BME280;50264;52.088;5.296;2022-12-07T07:57:10;101734.0;;;2.13;91.38
64023;BME280;50264;52.088;5.296;2022-12-07T07:58:46;101742.0;;;2.09;91.08
64023;BME280;50264;52.088;5.296;2022-12-07T08:01:58;101737.0;;;1.95;91.11
64023;BME280;50264;52.088;5.296;2022-12-07T08:03:35;101733.0;;;2.07;91.19
64023;BME280;50264;52.088;5.296;2022-12-07T08:05:12;101735.0;;;1.99;90.73
64023;BME280;50264;52.088;5.296;2022-12-07T08:06:48;101735.0;;;2.04;90.87
64023;BME280;50264;52.088;5.296;2022-12-07T08:10:01;101737.0;;;1.91;91.14
64023;BME280;50264;52.088;5.296;2022-12-07T08:11:38;101742.0;;;1.99;91.0
64023;BME280;50264;52.088;5.296;2022-12-07T08:13:15;101740.0;;;1.96;91.07
64023;BME280;50264;52.088;5.296;2022-12-07T08:16:29;101742.0;;;1.92;91.31
64023;BME280;50264;52.088;5.296;2022-12-07T08:18:05;101749.0;;;1.98;91.1
64023;BME280;50264;52.088;5.296;2022-12-07T08:19:42;101745.0;;;2.05;91.0
64023;BME280;50264;52.088;5.296;2022-12-07T08:21:18;101747.0;;;1.95;90.93
64023;BME280;50264;52.088;5.296;2022-12-07T08:24:33;101756.0;;;1.87;91.23
64023;BME280;50264;52.088;5.296;2022-12-07T08:26:11;101759.0;;;1.68;92.21
64023;BME280;50264;52.088;5.296;2022-12-07T08:27:48;101763.0;;;1.71;92.93
64023;BME280;50264;52.088;5.296;2022-12-07T08:31:03;101768.0;;;1.79;93.34
64023;BME280;50264;52.088;5.296;2022-12-07T08:32:40;101768.0;;;1.82;93.32
64023;BME280;50264;52.088;5.296;2022-12-07T08:34:16;101774.0;;;1.9;93.71
64023;BME280;50264;52.088;5.296;2022-12-07T08:37:28;101773.0;;;2.1;94.49
64023;BME280;50264;52.088;5.296;2022-12-07T08:39:04;101768.0;;;2.09;94.1
64023;BME280;50264;52.088;5.296;2022-12-07T08:40:40;101760.0;;;2.25;94.99
64023;BME280;50264;52.088;5.296;2022-12-07T08:42:17;101753.0;;;2.33;95.04
64023;BME280;50264;52.088;5.296;2022-12-07T08:45:32;101756.0;;;2.37;95.16
64023;BME280;50264;52.088;5.296;2022-12-07T08:47:10;101749.0;;;2.5;94.9
64023;BME280;50264;52.088;5.296;2022-12-07T08:48:50;101746.0;;;2.56;94.09
64023;BME280;50264;52.088;5.296;2022-12-07T08:52:07;101747.0;;;2.57;94.15
64023;BME280;50264;52.088;5.296;2022-12-07T08:53:43;101749.0;;;2.61;94.76
64023;BME280;50264;52.088;5.296;2022-12-07T08:55:20;101745.0;;;2.68;94.36
64023;BME280;50264;52.088;5.296;2022-12-07T08:56:57;101751.0;;;2.74;94.69
64023;BME280;50264;52.088;5.296;2022-12-07T09:00:13;101747.0;;;2.89;94.75
64023;BME280;50264;52.088;5.296;2022-12-07T09:01:50;101752.0;;;2.85;93.87
64023;BME280;50264;52.088;5.296;2022-12-07T09:03:26;101749.0;;;2.84;94.02
64023;BME280;50264;52.088;5.296;2022-12-07T09:06:40;101748.0;;;2.97;94.38
64023;BME280;50264;52.088;5.296;2022-12-07T09:08:18;101747.0;;;2.95;93.99
64023;BME280;50264;52.088;5.296;2022-12-07T09:09:55;101745.0;;;2.92;94.11
64023;BME280;50264;52.088;5.296;2022-12-07T09:11:32;101751.0;;;2.96;94.28
64023;BME280;50264;52.088;5.296;2022-12-07T09:14:44;101752.0;;;2.97;93.44
64023;BME280;50264;52.088;5.296;2022-12-07T09:16:20;101750.0;;;2.86;93.44
64023;BME280;50264;52.088;5.296;2022-12-07T09:17:57;101750.0;;;3.01;93.24
64023;BME280;50264;52.088;5.296;2022-12-07T09:21:09;101745.0;;;3.05;93.22
64023;BME280;50264;52.088;5.296;2022-12-07T09:22:45;101741.0;;;3.06;93.84
64023;BME280;50264;52.088;5.296;2022-12-07T09:24:22;101734.0;;;3.15;93.72
64023;BME280;50264;52.088;5.296;2022-12-07T09:27:36;101738.0;;;3.09;93.97
64023;BME280;50264;52.088;5.296;2022-12-07T09:29:12;101739.0;;;3.24;95.45
64023;BME280;50264;52.088;5.296;2022-12-07T09:30:49;101739.0;;;3.29;95.06
64023;BME280;50264;52.088;5.296;2022-12-07T09:34:01;101742.0;;;3.41;95.03
64023;BME280;50264;52.088;5.296;2022-12-07T09:35:37;101745.0;;;3.49;95.14
64023;BME280;50264;52.088;5.296;2022-12-07T09:37:14;101741.0;;;3.46;94.92
64023;BME280;50264;52.088;5.296;2022-12-07T09:38:50;101740.0;;;3.55;95.29
64023;BME280;50264;52.088;5.296;2022-12-07T09:42:05;101733.0;;;3.67;94.98
64023;BME280;50264;52.088;5.296;2022-12-07T09:43:42;101733.0;;;3.58;94.44
64023;BME280;50264;52.088;5.296;2022-12-07T09:45:22;101742.0;;;3.52;94.22
64023;BME280;50264;52.088;5.296;2022-12-07T09:48:37;101739.0;;;3.52;94.31
64023;BME280;50264;52.088;5.296;2022-12-07T09:50:16;101740.0;;;3.63;95.19
64023;BME280;50264;52.088;5.296;2022-12-07T09:52:04;101735.0;;;3.71;95.48
64023;BME280;50264;52.088;5.296;2022-12-07T09:53:55;101733.0;;;3.8;95.83
64023;BME280;50264;52.088;5.296;2022-12-07T09:55:42;101736.0;;;3.78;94.95
64023;BME280;50264;52.088;5.296;2022-12-07T09:59:12;101734.0;;;3.8;94.88
64023;BME280;50264;52.088;5.296;2022-12-07T10:00:50;101734.0;;;3.91;95.51
64023;BME280;50264;52.088;5.296;2022-12-07T10:02:35;101736.0;;;4.07;95.79
64023;BME280;50264;52.088;5.296;2022-12-07T10:04:16;101737.0;;;4.07;95.52
64023;BME280;50264;52.088;5.296;2022-12-07T10:07:31;101730.0;;;4.12;96.21
64023;BME280;50264;52.088;5.296;2022-12-07T10:09:10;101730.0;;;4.24;95.74
64023;BME280;50264;52.088;5.296;2022-12-07T10:10:51;101724.0;;;4.25;95.93
64023;BME280;50264;52.088;5.296;2022-12-07T10:12:28;101719.0;;;4.46;95.9
64023;BME280;50264;52.088;5.296;2022-12-07T10:15:51;101723.0;;;4.39;95.66
64023;BME280;50264;52.088;5.296;2022-12-07T10:17:32;101717.0;;;4.58;96.12
64023;BME280;50264;52.088;5.296;2022-12-07T10:19:22;101709.0;;;4.66;95.76
64023;BME280;50264;52.088;5.296;2022-12-07T10:21:02;101711.0;;;4.78;95.63
64023;BME280;50264;52.088;5.296;2022-12-07T10:22:54;101703.0;;;4.78;95.62
64023;BME280;50264;52.088;5.296;2022-12-07T10:26:48;101696.0;;;4.87;95.78
64023;BME280;50264;52.088;5.296;2022-12-07T10:28:33;101703.0;;;4.92;95.63
64023;BME280;50264;52.088;5.296;2022-12-07T10:30:20;101699.0;;;4.95;96.13
64023;BME280;50264;52.088;5.296;2022-12-07T10:31:59;101695.0;;;5.03;95.85
64023;BME280;50264;52.088;5.296;2022-12-07T10:33:49;101693.0;;;5.07;95.74
64023;BME280;50264;52.088;5.296;2022-12-07T10:35:27;101691.0;;;5.07;95.65
64023;BME280;50264;52.088;5.296;2022-12-07T10:39:00;101697.0;;;5.07;95.4
64023;BME280;50264;52.088;5.296;2022-12-07T10:40:38;101689.0;;;5.04;95.23
64023;BME280;50264;52.088;5.296;2022-12-07T10:42:18;101691.0;;;5.04;95.26
64023;BME280;50264;52.088;5.296;2022-12-07T10:43:56;101690.0;;;5.05;95.2
64023;BME280;50264;52.088;5.296;2022-12-07T10:47:27;101683.0;;;5.05;95.56
64023;BME280;50264;52.088;5.296;2022-12-07T10:49:29;101685.0;;;5.17;96.44
64023;BME280;50264;52.088;5.296;2022-12-07T10:52:34;101676.0;;;5.38;97.14
64023;BME280;50264;52.088;5.296;2022-12-07T10:54:25;101678.0;;;5.51;97.14
64023;BME280;50264;52.088;5.296;2022-12-07T10:56:24;101670.0;;;5.65;97.13
64023;BME280;50264;52.088;5.296;2022-12-07T10:58:31;101673.0;;;5.78;96.97
64023;BME280;50264;52.088;5.296;2022-12-07T11:02:01;101667.0;;;5.89;96.72
64023;BME280;50264;52.088;5.296;2022-12-07T11:05:57;101665.0;;;6.12;95.58
64023;BME280;50264;52.088;5.296;2022-12-07T11:07:46;101668.0;;;6.27;94.15
64023;BME280;50264;52.088;5.296;2022-12-07T11:09:47;101668.0;;;6.41;93.51
64023;BME280;50264;52.088;5.296;2022-12-07T11:11:48;101666.0;;;6.46;93.95
64023;BME280;50264;52.088;5.296;2022-12-07T11:13:38;101668.0;;;6.57;93.21
64023;BME280;50264;52.088;5.296;2022-12-07T11:15:24;101659.0;;;6.64;93.85
64023;BME280;50264;52.088;5.296;2022-12-07T11:18:59;101660.0;;;6.69;93.88
64023;BME280;50264;52.088;5.296;2022-12-07T11:20:44;101657.0;;;6.77;92.97